Time;durP1;ratioP1;P1;durP2;ratioP2;P2;SDS_P1;SDS_P2;PMS_P1;PMS_P2;Temp;Humidity;BMP_temperature;BMP_pressure;BME280_temperature;BME280_humidity;BME280_pressure;Samples;Min_cycle;Max_cycle;Signal;HPM_P1;HPM_P2
2021/12/29 00:00:16;;;;;;;11.88;1.92;;;8.00;79.30;;;;;;5052646;28;20036;-74
2021/12/29 00:02:42;;;;;;;12.32;1.92;;;7.90;79.60;;;;;;5052840;28;20031;-74
2021/12/29 00:05:08;;;;;;;8.02;1.70;;;7.90;79.60;;;;;;5052793;28;20108;-74
2021/12/29 00:07:34;;;;;;;8.48;1.80;;;7.90;79.40;;;;;;5052554;28;20025;-74
2021/12/29 00:10:01;;;;;;;10.02;1.98;;;8.00;78.80;;;;;;5055256;28;20055;-74
2021/12/29 00:12:27;;;;;;;13.38;2.22;;;8.00;79.40;;;;;;5056379;28;20035;-75
2021/12/29 00:14:54;;;;;;;12.02;2.42;;;7.90;79.40;;;;;;5057059;28;20082;-74
2021/12/29 00:17:20;;;;;;;6.65;1.70;;;7.90;79.30;;;;;;5056660;28;20032;-74
2021/12/29 00:19:46;;;;;;;9.63;1.83;;;7.90;79.50;;;;;;5056779;28;20108;-73
2021/12/29 00:22:11;;;;;;;11.40;2.38;;;7.90;79.00;;;;;;5056748;28;20477;-73
2021/12/29 00:24:37;;;;;;;15.02;1.92;;;8.00;78.20;;;;;;5056744;28;20033;-73
2021/12/29 00:27:04;;;;;;;12.88;1.90;;;8.00;78.10;;;;;;5056612;28;20110;-73
2021/12/29 00:29:30;;;;;;;15.52;1.92;;;8.00;78.10;;;;;;5056412;28;20079;-73
2021/12/29 00:31:56;;;;;;;6.85;1.48;;;8.00;78.20;;;;;;5056623;28;20481;-74
2021/12/29 00:34:22;;;;;;;8.63;2.10;;;8.00;78.30;;;;;;5056152;28;20084;-74
2021/12/29 00:36:47;;;;;;;6.95;1.33;;;8.00;78.10;;;;;;5056585;28;20032;-74
2021/12/29 00:39:13;;;;;;;9.77;1.52;;;8.10;78.00;;;;;;5056531;28;20436;-74
2021/12/29 00:41:38;;;;;;;9.32;1.75;;;8.10;78.20;;;;;;5056379;28;20079;-74
2021/12/29 00:44:06;;;;;;;8.10;1.40;;;8.10;78.30;;;;;;5056378;28;20031;-74
2021/12/29 00:46:32;;;;;;;5.50;1.40;;;8.00;78.20;;;;;;5056239;28;20112;-74
2021/12/29 00:48:58;;;;;;;8.68;2.35;;;7.90;78.60;;;;;;5056290;28;20025;-74
2021/12/29 00:51:23;;;;;;;10.13;1.92;;;7.90;78.60;;;;;;5055923;28;20034;-74
2021/12/29 00:53:49;;;;;;;8.55;1.60;;;7.90;78.80;;;;;;5056099;28;20436;-74
2021/12/29 00:56:15;;;;;;;6.38;1.42;;;8.00;78.20;;;;;;5038155;28;20465;-75
2021/12/29 00:58:40;;;;;;;9.80;1.27;;;7.90;78.40;;;;;;5056094;28;20382;-75
2021/12/29 01:01:06;;;;;;;9.75;1.35;;;8.00;78.50;;;;;;5056150;28;20051;-74
2021/12/29 01:03:33;;;;;;;5.45;1.33;;;7.90;78.70;;;;;;5055989;28;20074;-75
2021/12/29 01:05:59;;;;;;;7.22;1.35;;;7.90;78.50;;;;;;5038123;28;20134;-75
2021/12/29 01:08:24;;;;;;;9.85;1.35;;;7.90;79.00;;;;;;5038199;28;20446;-75
2021/12/29 01:10:51;;;;;;;9.43;1.85;;;8.00;78.90;;;;;;5037945;28;20543;-75
2021/12/29 01:13:19;;;;;;;7.63;1.50;;;8.00;78.90;;;;;;5037807;28;20029;-75
2021/12/29 01:18:27;;;;;;;7.10;1.40;;;8.00;79.10;;;;;;5055646;28;20366;-74
2021/12/29 01:20:54;;;;;;;11.95;1.95;;;7.90;79.10;;;;;;5071024;28;20116;-74
2021/12/29 01:23:20;;;;;;;9.60;2.05;;;7.90;79.50;;;;;;5037120;28;20520;-75
2021/12/29 01:25:46;;;;;;;4.95;1.13;;;7.90;79.70;;;;;;5036381;28;20025;-75
2021/12/29 01:28:11;;;;;;;7.75;1.27;;;7.90;80.10;;;;;;5037565;28;20462;-74
2021/12/29 01:30:37;;;;;;;12.57;1.30;;;7.90;80.30;;;;;;5037439;28;20066;-74
2021/12/29 01:33:06;;;;;;;6.03;1.38;;;7.90;79.90;;;;;;5037461;28;20028;-74
2021/12/29 01:35:35;;;;;;;11.57;1.80;;;7.90;80.40;;;;;;5037214;28;20136;-74
2021/12/29 01:38:02;;;;;;;13.85;1.85;;;7.90;80.40;;;;;;5055157;28;20503;-74
2021/12/29 01:40:28;;;;;;;8.68;1.58;;;7.80;80.50;;;;;;5055063;28;20025;-74
2021/12/29 01:42:54;;;;;;;7.60;1.33;;;7.90;81.00;;;;;;5055184;28;20431;-74
2021/12/29 01:45:21;;;;;;;8.27;1.42;;;7.80;81.30;;;;;;5055091;28;20053;-74
2021/12/29 01:47:48;;;;;;;4.88;1.15;;;7.80;81.40;;;;;;5037157;28;20079;-74
2021/12/29 01:50:14;;;;;;;7.40;1.40;;;7.70;81.60;;;;;;5054920;28;20036;-74
2021/12/29 01:52:41;;;;;;;7.95;1.38;;;7.70;81.70;;;;;;5037001;28;20040;-74
2021/12/29 01:55:11;;;;;;;8.93;1.80;;;7.70;81.80;;;;;;5054655;28;20029;-74
2021/12/29 01:57:37;;;;;;;3.33;0.68;;;7.70;81.70;;;;;;5036636;28;20384;-74
2021/12/29 02:00:06;;;;;;;4.60;1.13;;;7.70;82.60;;;;;;5036979;28;20025;-74
2021/12/29 02:02:32;;;;;;;10.20;1.48;;;7.70;81.70;;;;;;5036719;28;20393;-74
2021/12/29 02:04:58;;;;;;;7.72;0.95;;;7.70;82.20;;;;;;5036890;28;20017;-74
2021/12/29 02:07:23;;;;;;;8.63;1.02;;;7.70;82.50;;;;;;5036847;28;20170;-74
2021/12/29 02:09:49;;;;;;;6.07;1.48;;;7.60;83.10;;;;;;5036631;28;20036;-74
2021/12/29 02:12:16;;;;;;;4.70;0.75;;;7.60;83.10;;;;;;5054615;28;20033;-74
2021/12/29 02:14:42;;;;;;;4.90;0.75;;;7.70;83.30;;;;;;5036591;28;20370;-74
2021/12/29 02:17:08;;;;;;;6.13;0.90;;;7.70;83.00;;;;;;5069830;28;20032;-74
2021/12/29 02:19:34;;;;;;;5.63;0.93;;;7.70;83.10;;;;;;5054321;28;20033;-74
2021/12/29 02:22:12;;;;;;;6.43;1.20;;;7.70;83.10;;;;;;5036546;28;20033;-74
2021/12/29 02:24:41;;;;;;;6.03;1.15;;;7.70;83.40;;;;;;5036558;28;20024;-73
2021/12/29 02:27:11;;;;;;;7.35;1.15;;;7.60;83.50;;;;;;5036429;28;20028;-73
2021/12/29 02:29:37;;;;;;;5.85;1.38;;;7.70;83.50;;;;;;5036010;28;20049;-73
2021/12/29 02:32:04;;;;;;;13.68;1.20;;;7.70;83.60;;;;;;5036371;28;20053;-73
2021/12/29 02:34:30;;;;;;;5.00;0.90;;;7.60;84.30;;;;;;5035944;28;20040;-73
2021/12/29 02:36:58;;;;;;;4.22;0.70;;;7.60;84.70;;;;;;5035906;28;20397;-73
2021/12/29 02:39:25;;;;;;;9.93;1.35;;;7.60;84.90;;;;;;5035989;28;20055;-73
2021/12/29 02:41:54;;;;;;;5.45;0.73;;;7.60;85.00;;;;;;5036214;28;20320;-73
2021/12/29 02:44:26;;;;;;;6.63;0.95;;;7.60;85.10;;;;;;5036016;28;20025;-73
2021/12/29 02:46:54;;;;;;;4.75;0.82;;;7.60;84.90;;;;;;5036144;28;20033;-73
2021/12/29 02:49:20;;;;;;;3.67;0.75;;;7.60;84.30;;;;;;5035982;28;20025;-73
2021/12/29 02:51:47;;;;;;;5.32;0.80;;;7.70;84.30;;;;;;5035888;28;20071;-73
2021/12/29 02:54:16;;;;;;;3.75;1.25;;;7.70;84.60;;;;;;5035770;28;20032;-73
2021/12/29 02:56:42;;;;;;;7.00;1.10;;;7.70;84.60;;;;;;5035813;28;20059;-74
2021/12/29 02:59:07;;;;;;;7.35;0.55;;;7.70;84.70;;;;;;5035677;28;20551;-74
2021/12/29 03:01:33;;;;;;;6.90;1.23;;;7.60;84.60;;;;;;5035389;28;20049;-74
2021/12/29 03:03:59;;;;;;;5.03;0.80;;;7.60;84.80;;;;;;5035698;28;20119;-74
2021/12/29 03:06:25;;;;;;;3.60;0.55;;;7.70;84.40;;;;;;5035680;28;20104;-74
2021/12/29 03:08:51;;;;;;;4.82;0.70;;;7.70;84.30;;;;;;5068942;28;20075;-74
2021/12/29 03:11:17;;;;;;;4.82;1.23;;;7.70;84.60;;;;;;5035300;28;20049;-74
2021/12/29 03:13:43;;;;;;;5.97;1.17;;;7.70;85.00;;;;;;5035490;28;20047;-74
2021/12/29 03:16:10;;;;;;;4.13;0.60;;;7.70;85.10;;;;;;5035620;28;20032;-74
2021/12/29 03:18:36;;;;;;;3.33;0.98;;;7.70;85.10;;;;;;5035028;28;20025;-74
2021/12/29 03:21:02;;;;;;;8.60;0.95;;;7.70;84.60;;;;;;5035238;28;20025;-74
2021/12/29 03:23:28;;;;;;;6.05;0.73;;;7.70;84.40;;;;;;5035149;28;20021;-74
2021/12/29 03:25:54;;;;;;;4.13;0.80;;;7.70;84.70;;;;;;5035332;28;20025;-75
2021/12/29 03:28:22;;;;;;;4.90;0.88;;;7.80;84.40;;;;;;5035307;28;20025;-74
2021/12/29 03:30:52;;;;;;;5.72;0.70;;;7.70;84.10;;;;;;5035107;28;20497;-74
2021/12/29 03:33:18;;;;;;;2.97;0.60;;;7.80;83.50;;;;;;5035191;28;20030;-73
2021/12/29 03:35:51;;;;;;;4.32;0.88;;;7.80;83.00;;;;;;5034853;28;20048;-74
2021/12/29 03:38:20;;;;;;;5.57;0.60;;;7.80;82.80;;;;;;5034927;28;20025;-73
2021/12/29 03:40:46;;;;;;;4.82;0.68;;;7.90;82.40;;;;;;5035299;28;20029;-73
2021/12/29 03:43:13;;;;;;;3.53;0.75;;;7.90;82.10;;;;;;5035105;28;20028;-73
2021/12/29 03:45:44;;;;;;;4.25;0.93;;;8.00;81.80;;;;;;5034972;28;20032;-73
2021/12/29 03:48:11;;;;;;;2.55;0.60;;;8.00;81.80;;;;;;5034196;28;20021;-74
2021/12/29 03:50:37;;;;;;;5.85;0.85;;;8.00;82.30;;;;;;5034669;28;20386;-73
2021/12/29 03:53:04;;;;;;;3.20;0.60;;;8.00;82.10;;;;;;5034626;28;20078;-73
2021/12/29 03:55:30;;;;;;;3.60;0.60;;;8.00;82.40;;;;;;5034493;28;20561;-74
2021/12/29 03:57:56;;;;;;;4.35;0.80;;;8.00;83.00;;;;;;5034863;28;20049;-74
2021/12/29 04:00:22;;;;;;;6.15;1.23;;;7.90;83.50;;;;;;5034628;28;20033;-74
2021/12/29 04:02:48;;;;;;;2.17;0.80;;;7.90;83.40;;;;;;5034675;28;20021;-74
2021/12/29 04:05:17;;;;;;;9.40;1.23;;;7.90;82.60;;;;;;5068073;28;20025;-74
2021/12/29 04:07:43;;;;;;;4.68;0.70;;;7.90;82.80;;;;;;5034888;28;20021;-74
2021/12/29 04:10:10;;;;;;;3.72;0.77;;;7.90;82.70;;;;;;5034865;28;20033;-74
2021/12/29 04:12:36;;;;;;;5.38;0.90;;;7.90;82.40;;;;;;5034578;28;20040;-74
2021/12/29 04:15:03;;;;;;;3.35;0.80;;;8.00;82.70;;;;;;5034981;28;20390;-74
2021/12/29 04:17:36;;;;;;;7.07;1.02;;;7.90;82.20;;;;;;5034615;28;20178;-74
2021/12/29 04:22:51;;;;;;;3.58;0.80;;;7.90;82.80;;;;;;5052839;28;20102;-74
2021/12/29 04:25:19;;;;;;;2.92;0.60;;;7.90;83.50;;;;;;5034732;28;20021;-74
2021/12/29 04:27:46;;;;;;;3.70;0.77;;;7.90;83.90;;;;;;5034694;28;20021;-74
2021/12/29 04:30:13;;;;;;;4.97;0.73;;;7.90;84.40;;;;;;5034597;28;20029;-74
2021/12/29 04:32:38;;;;;;;3.30;0.70;;;7.90;84.80;;;;;;5034633;28;20021;-75
2021/12/29 04:35:04;;;;;;;5.72;1.05;;;7.80;84.50;;;;;;5034720;28;20068;-74
2021/12/29 04:37:30;;;;;;;2.85;0.50;;;7.90;84.70;;;;;;5034311;28;20033;-74
2021/12/29 04:39:55;;;;;;;3.55;1.08;;;7.80;84.20;;;;;;5034613;28;20501;-74
2021/12/29 04:42:21;;;;;;;4.45;0.90;;;7.80;84.40;;;;;;5034292;28;20029;-74
2021/12/29 04:44:48;;;;;;;2.85;0.90;;;7.90;84.10;;;;;;5034595;28;20123;-73
2021/12/29 04:47:13;;;;;;;2.70;0.60;;;7.90;83.80;;;;;;5034619;28;20473;-74
2021/12/29 04:49:41;;;;;;;6.63;0.63;;;7.90;83.70;;;;;;5034366;28;20025;-73
2021/12/29 04:52:10;;;;;;;4.78;0.80;;;7.90;83.80;;;;;;5034377;28;20090;-73
2021/12/29 04:54:37;;;;;;;3.50;1.00;;;7.90;83.90;;;;;;5034155;28;20114;-73
2021/12/29 04:57:03;;;;;;;3.97;0.63;;;7.90;83.90;;;;;;5034391;28;20032;-74
2021/12/29 04:59:29;;;;;;;6.35;0.77;;;7.90;84.20;;;;;;5036588;28;20096;-74
2021/12/29 05:01:54;;;;;;;5.45;0.43;;;7.90;84.60;;;;;;5038299;28;20040;-74
2021/12/29 05:04:23;;;;;;;1.48;0.40;;;7.90;84.50;;;;;;5037998;28;20025;-73
2021/12/29 05:09:34;;;;;;;2.22;0.47;;;7.80;85.10;;;;;;5055905;28;20390;-73
2021/12/29 05:12:01;;;;;;;5.70;2.30;;;7.80;85.10;;;;;;5037830;28;20100;-74
2021/12/29 05:14:27;;;;;;;4.43;0.45;;;7.80;84.90;;;;;;5037725;28;20515;-73
2021/12/29 05:16:53;;;;;;;0.95;0.20;;;7.80;84.90;;;;;;5037806;28;20029;-73
2021/12/29 05:19:19;;;;;;;2.38;0.60;;;7.80;84.20;;;;;;5037830;28;20021;-73
2021/12/29 05:21:45;;;;;;;3.03;0.65;;;7.80;84.30;;;;;;5037759;28;20504;-73
2021/12/29 05:24:10;;;;;;;3.20;0.75;;;7.80;84.20;;;;;;5037788;28;20051;-73
2021/12/29 05:26:36;;;;;;;1.25;0.30;;;7.90;84.00;;;;;;5037693;28;20389;-73
2021/12/29 05:29:02;;;;;;;2.05;0.50;;;7.90;85.50;;;;;;5037575;28;20021;-73
2021/12/29 05:31:28;;;;;;;3.17;0.60;;;7.80;85.20;;;;;;5037478;28;20029;-74
2021/12/29 05:33:54;;;;;;;4.18;0.40;;;7.90;85.50;;;;;;5037543;28;20040;-73
2021/12/29 05:36:20;;;;;;;1.60;0.57;;;7.80;85.10;;;;;;5037517;28;20083;-74
2021/12/29 05:38:46;;;;;;;4.40;0.52;;;7.80;85.20;;;;;;5037603;28;20029;-73
2021/12/29 05:41:11;;;;;;;1.98;0.40;;;7.70;85.40;;;;;;5037624;28;20051;-74
2021/12/29 05:43:37;;;;;;;3.33;0.88;;;7.80;84.90;;;;;;5037378;28;20099;-73
2021/12/29 05:46:02;;;;;;;2.55;0.70;;;7.80;84.50;;;;;;5037213;28;20025;-73
2021/12/29 05:48:28;;;;;;;2.83;0.55;;;7.90;84.40;;;;;;5037182;28;20099;-73
2021/12/29 05:50:54;;;;;;;1.98;0.50;;;7.90;84.30;;;;;;5037179;28;20043;-73
2021/12/29 05:53:19;;;;;;;1.55;0.55;;;7.80;84.10;;;;;;5037076;28;20023;-73
2021/12/29 05:55:45;;;;;;;3.60;0.50;;;7.80;84.50;;;;;;5037200;28;20123;-73
2021/12/29 05:58:10;;;;;;;3.70;0.68;;;7.80;84.10;;;;;;5037081;28;20362;-73
2021/12/29 06:00:39;;;;;;;2.15;0.57;;;7.80;84.30;;;;;;5036990;28;20350;-73
2021/12/29 06:03:05;;;;;;;4.82;1.08;;;7.80;83.90;;;;;;5037026;28;20024;-73
2021/12/29 06:05:31;;;;;;;4.55;0.50;;;7.80;84.40;;;;;;5037003;28;20029;-73
2021/12/29 06:07:56;;;;;;;1.73;0.40;;;7.80;84.40;;;;;;5036954;28;20032;-73
2021/12/29 06:10:22;;;;;;;1.13;0.40;;;7.90;83.80;;;;;;5036026;28;20029;-73
2021/12/29 06:12:47;;;;;;;4.25;0.60;;;7.90;83.50;;;;;;5054641;28;20013;-73
2021/12/29 06:15:14;;;;;;;2.72;0.75;;;7.90;83.80;;;;;;5036906;28;20032;-73
2021/12/29 06:17:40;;;;;;;0.93;0.40;;;7.90;83.80;;;;;;5054692;28;20492;-73
2021/12/29 06:20:09;;;;;;;3.55;0.68;;;7.90;83.20;;;;;;5036588;28;20025;-73
2021/12/29 06:22:35;;;;;;;2.92;0.75;;;7.90;83.30;;;;;;5036472;28;20028;-73
2021/12/29 06:25:01;;;;;;;2.08;0.40;;;7.90;83.80;;;;;;5054606;28;20421;-74
2021/12/29 06:27:27;;;;;;;1.50;0.60;;;7.90;84.40;;;;;;5036322;28;20025;-73
2021/12/29 06:29:52;;;;;;;2.75;0.20;;;7.90;84.50;;;;;;5036727;28;20063;-73
2021/12/29 06:32:20;;;;;;;5.43;0.80;;;7.90;84.20;;;;;;5036065;28;20104;-73
2021/12/29 06:34:45;;;;;;;2.00;0.55;;;7.90;83.10;;;;;;5036031;28;20126;-73
2021/12/29 06:37:12;;;;;;;2.90;0.40;;;7.90;82.90;;;;;;5036295;28;20474;-73
2021/12/29 06:39:42;;;;;;;2.53;0.30;;;8.00;82.80;;;;;;5035850;28;20368;-73
2021/12/29 06:42:08;;;;;;;6.38;1.45;;;8.00;83.10;;;;;;5035988;28;20085;-73
2021/12/29 06:44:34;;;;;;;1.58;0.60;;;8.00;82.90;;;;;;5036357;28;20048;-73
2021/12/29 06:46:59;;;;;;;6.68;0.82;;;8.00;82.90;;;;;;5036142;28;20025;-73
2021/12/29 06:49:25;;;;;;;2.20;0.68;;;7.90;83.60;;;;;;5058644;28;20119;-73
2021/12/29 06:51:51;;;;;;;3.90;0.73;;;7.90;83.50;;;;;;5058855;28;20032;-73
2021/12/29 06:54:18;;;;;;;3.95;0.73;;;7.90;83.10;;;;;;5036004;28;20124;-73
2021/12/29 06:56:44;;;;;;;5.25;0.60;;;7.90;83.20;;;;;;5053781;28;20112;-73
2021/12/29 06:59:09;;;;;;;2.30;0.75;;;7.90;83.10;;;;;;5035484;28;20112;-73
2021/12/29 07:01:35;;;;;;;4.75;1.30;;;7.90;82.40;;;;;;5053598;28;20083;-73
2021/12/29 07:04:01;;;;;;;3.20;0.90;;;8.00;82.20;;;;;;5053703;28;20028;-73
2021/12/29 07:06:26;;;;;;;6.53;0.85;;;8.00;82.30;;;;;;5035389;28;20371;-73
2021/12/29 07:08:52;;;;;;;2.88;0.70;;;8.00;81.60;;;;;;5035712;28;20120;-73
2021/12/29 07:11:18;;;;;;;2.33;0.52;;;8.00;80.80;;;;;;5035444;28;20443;-73
2021/12/29 07:13:44;;;;;;;1.20;0.63;;;8.00;80.50;;;;;;5035900;28;20104;-73
2021/12/29 07:16:10;;;;;;;1.60;0.60;;;8.10;80.00;;;;;;5053705;28;20056;-73
2021/12/29 07:18:36;;;;;;;2.47;0.60;;;8.10;79.60;;;;;;5036052;28;20286;-74
2021/12/29 07:21:02;;;;;;;4.63;0.68;;;8.10;79.80;;;;;;5034993;28;20033;-74
2021/12/29 07:23:28;;;;;;;2.22;0.50;;;8.10;80.30;;;;;;5053294;28;20029;-74
2021/12/29 07:25:53;;;;;;;1.70;0.35;;;8.00;80.80;;;;;;5035459;28;20530;-74
2021/12/29 07:28:19;;;;;;;5.57;1.13;;;8.00;80.40;;;;;;5053498;28;20508;-74
2021/12/29 07:30:45;;;;;;;1.35;0.70;;;8.00;80.70;;;;;;5053161;28;20037;-75
2021/12/29 07:33:10;;;;;;;2.67;0.60;;;8.00;81.10;;;;;;5035492;28;20032;-74
2021/12/29 07:35:36;;;;;;;1.95;0.43;;;8.10;81.40;;;;;;5052941;28;20048;-74
2021/12/29 07:38:01;;;;;;;2.83;0.45;;;8.10;81.50;;;;;;5053307;28;20075;-74
2021/12/29 07:40:27;;;;;;;2.35;0.70;;;8.00;81.70;;;;;;5052859;28;20118;-72
2021/12/29 07:42:53;;;;;;;1.08;0.40;;;8.10;81.90;;;;;;5053045;28;20029;-72
2021/12/29 07:45:19;;;;;;;3.15;0.95;;;8.10;81.80;;;;;;5053557;28;20031;-72
2021/12/29 07:47:46;;;;;;;3.53;0.43;;;8.10;80.80;;;;;;5053264;28;20025;-72
2021/12/29 07:50:13;;;;;;;3.92;0.75;;;8.10;81.10;;;;;;5052760;28;20028;-72
2021/12/29 07:52:39;;;;;;;2.38;0.60;;;8.10;80.40;;;;;;5052854;28;20044;-73
2021/12/29 07:55:05;;;;;;;2.53;0.70;;;8.20;79.60;;;;;;5053078;28;20025;-73
2021/12/29 07:57:31;;;;;;;3.40;0.50;;;8.20;79.60;;;;;;5052839;28;20035;-73
2021/12/29 07:59:56;;;;;;;5.10;0.60;;;8.20;79.60;;;;;;5052719;28;20099;-73
2021/12/29 08:02:27;;;;;;;2.70;0.57;;;8.20;79.70;;;;;;5052515;28;20033;-74
2021/12/29 08:04:54;;;;;;;3.50;0.75;;;8.20;79.70;;;;;;5052791;28;20025;-73
2021/12/29 08:07:20;;;;;;;4.35;0.77;;;8.30;79.60;;;;;;5068462;28;20082;-74
2021/12/29 08:09:46;;;;;;;3.30;0.60;;;8.30;79.50;;;;;;5052734;28;20017;-73
2021/12/29 08:12:22;;;;;;;4.38;0.82;;;8.30;79.30;;;;;;5052509;28;20028;-74
2021/12/29 08:14:49;;;;;;;3.45;1.05;;;8.40;78.80;;;;;;5053074;28;20028;-72
2021/12/29 08:17:15;;;;;;;7.82;2.17;;;8.40;79.30;;;;;;5052723;28;20036;-73
2021/12/29 08:19:41;;;;;;;5.82;1.42;;;8.40;79.00;;;;;;5052606;28;20018;-73
2021/12/29 08:22:07;;;;;;;3.67;1.10;;;8.40;78.70;;;;;;5052511;28;20122;-74
2021/12/29 08:24:32;;;;;;;3.22;0.73;;;8.40;79.10;;;;;;5052718;28;20394;-74
2021/12/29 08:26:58;;;;;;;3.35;0.63;;;8.40;78.60;;;;;;5056049;28;20032;-73
2021/12/29 08:29:23;;;;;;;3.55;0.75;;;8.40;78.30;;;;;;5052717;28;20024;-74
2021/12/29 08:31:49;;;;;;;7.15;0.80;;;8.50;77.80;;;;;;5052578;28;20032;-73
2021/12/29 08:34:15;;;;;;;3.22;0.68;;;8.50;78.00;;;;;;5055256;28;20048;-72
2021/12/29 08:36:41;;;;;;;5.45;0.70;;;8.40;78.20;;;;;;5056320;28;20017;-72
2021/12/29 08:39:07;;;;;;;5.10;0.90;;;8.50;78.00;;;;;;5056008;28;20025;-74
2021/12/29 08:41:33;;;;;;;2.35;0.70;;;8.40;78.30;;;;;;5056225;28;20469;-77
2021/12/29 08:43:59;;;;;;;8.15;1.38;;;8.60;78.10;;;;;;5038401;28;20032;-77
2021/12/29 08:46:25;;;;;;;6.25;1.00;;;8.70;77.70;;;;;;5038273;28;20120;-81
2021/12/29 08:48:51;;;;;;;1.25;0.50;;;8.70;77.30;;;;;;5071621;28;20032;-79
2021/12/29 08:51:18;;;;;;;3.75;0.98;;;8.70;77.80;;;;;;5056052;28;20037;-80
2021/12/29 08:53:44;;;;;;;9.07;0.98;;;8.70;77.80;;;;;;5038905;28;20021;-83
2021/12/29 08:56:10;;;;;;;6.72;1.23;;;8.90;79.40;;;;;;5056657;28;20473;-80
2021/12/29 08:58:35;;;;;;;6.10;1.05;;;9.10;77.40;;;;;;5039461;28;20031;-84
2021/12/29 09:01:03;;;;;;;4.93;1.05;;;9.20;76.50;;;;;;5072437;28;20049;-85
2021/12/29 09:13:16;;;;;;;3.90;1.00;;;9.50;75.20;;;;;;5062100;28;20090;-74
2021/12/29 09:15:42;;;;;;;3.50;0.75;;;9.50;75.30;;;;;;5059297;28;20025;-73
2021/12/29 09:18:08;;;;;;;3.67;0.90;;;9.50;74.20;;;;;;5055690;28;20025;-73
2021/12/29 09:20:36;;;;;;;5.47;1.10;;;9.30;74.70;;;;;;5055621;28;20035;-73
2021/12/29 09:23:08;;;;;;;6.18;1.60;;;9.10;75.80;;;;;;5055402;28;20017;-73
2021/12/29 09:25:36;;;;;;;8.52;1.02;;;9.00;76.20;;;;;;5055136;28;20477;-72
2021/12/29 09:28:03;;;;;;;5.47;0.90;;;9.00;76.50;;;;;;5037613;28;20435;-75
2021/12/29 09:30:32;;;;;;;3.85;0.85;;;9.00;76.80;;;;;;5037348;28;20029;-75
2021/12/29 09:32:58;;;;;;;5.45;0.90;;;9.00;76.50;;;;;;5055189;28;20420;-74
2021/12/29 09:35:24;;;;;;;5.88;1.20;;;9.10;76.80;;;;;;5054762;28;20566;-73
2021/12/29 09:37:51;;;;;;;3.78;1.00;;;9.10;76.50;;;;;;5055379;28;20029;-75
2021/12/29 09:40:20;;;;;;;5.88;1.40;;;9.10;76.60;;;;;;5037152;28;20036;-75
2021/12/29 09:42:46;;;;;;;11.43;2.00;;;9.10;76.90;;;;;;5054843;28;20048;-75
2021/12/29 09:45:12;;;;;;;6.47;1.38;;;9.20;76.40;;;;;;5053956;28;20104;-75
2021/12/29 09:47:38;;;;;;;7.43;1.10;;;9.20;75.80;;;;;;5036898;28;20082;-74
2021/12/29 09:50:08;;;;;;;5.88;0.95;;;9.10;76.00;;;;;;5054841;28;20028;-74
2021/12/29 09:52:34;;;;;;;7.70;1.63;;;9.10;76.50;;;;;;5054468;28;20036;-74
2021/12/29 09:55:04;;;;;;;9.15;1.50;;;9.20;76.50;;;;;;5037008;28;20366;-75
2021/12/29 09:57:34;;;;;;;8.75;1.80;;;9.20;76.80;;;;;;5054795;28;20021;-73
2021/12/29 10:00:00;;;;;;;8.23;1.20;;;9.20;76.50;;;;;;5054861;28;20025;-73
2021/12/29 10:02:26;;;;;;;8.50;1.70;;;9.20;76.30;;;;;;5054547;28;20100;-74
2021/12/29 10:04:52;;;;;;;6.95;1.80;;;9.20;76.40;;;;;;5054656;28;20025;-74
2021/12/29 10:07:20;;;;;;;8.30;1.75;;;9.20;76.40;;;;;;5054456;28;20017;-75
2021/12/29 10:09:46;;;;;;;6.65;2.33;;;9.20;76.70;;;;;;5054633;28;20021;-73
2021/12/29 10:12:19;;;;;;;10.85;2.72;;;9.20;76.60;;;;;;5069568;28;20036;-73
2021/12/29 10:14:56;;;;;;;9.20;1.63;;;9.20;76.30;;;;;;5054461;28;20104;-74
2021/12/29 10:17:27;;;;;;;10.50;2.35;;;9.20;76.70;;;;;;5054292;28;20075;-74
2021/12/29 10:20:09;;;;;;;10.27;2.25;;;9.10;77.00;;;;;;5036170;28;20385;-74
2021/12/29 10:22:35;;;;;;;13.55;2.85;;;9.20;76.90;;;;;;5069552;28;20104;-73
2021/12/29 10:25:15;;;;;;;11.88;2.20;;;9.10;77.30;;;;;;5036193;28;20036;-74
2021/12/29 10:27:41;;;;;;;7.72;1.75;;;9.10;76.80;;;;;;5054276;28;20392;-72
2021/12/29 10:30:27;;;;;;;10.27;2.17;;;9.10;77.00;;;;;;5054005;28;20099;-73
2021/12/29 10:32:57;;;;;;;9.50;2.17;;;9.10;77.30;;;;;;5054197;28;20393;-74
2021/12/29 10:35:29;;;;;;;10.48;2.13;;;9.10;77.80;;;;;;5053422;28;20540;-75
2021/12/29 10:38:16;;;;;;;13.20;2.40;;;9.10;77.60;;;;;;5053582;28;20470;-74
2021/12/29 10:40:42;;;;;;;9.38;1.90;;;9.10;77.10;;;;;;5053371;28;20391;-75
2021/12/29 10:43:08;;;;;;;13.30;1.83;;;9.10;77.10;;;;;;5053469;28;20024;-75
2021/12/29 10:45:39;;;;;;;7.85;1.63;;;9.10;77.30;;;;;;5053544;28;20116;-75
2021/12/29 10:48:20;;;;;;;7.22;1.60;;;9.10;77.60;;;;;;5036363;28;20025;-75
2021/12/29 10:51:08;;;;;;;6.78;1.58;;;9.10;77.50;;;;;;5053768;28;20037;-76
2021/12/29 10:53:37;;;;;;;6.38;1.75;;;9.10;78.20;;;;;;5053612;28;20029;-76
2021/12/29 10:56:04;;;;;;;12.55;2.17;;;9.10;78.40;;;;;;5053126;28;20056;-76
2021/12/29 10:58:32;;;;;;;14.85;2.55;;;9.10;78.40;;;;;;5068685;28;20069;-76
2021/12/29 11:01:08;;;;;;;16.45;2.13;;;9.10;77.70;;;;;;5035629;28;20075;-75
2021/12/29 11:03:41;;;;;;;18.77;2.50;;;9.00;78.50;;;;;;5035147;28;20547;-75
2021/12/29 11:06:12;;;;;;;9.50;2.05;;;9.10;79.00;;;;;;5053432;28;20098;-75
2021/12/29 11:08:56;;;;;;;9.43;1.77;;;9.10;78.60;;;;;;5053433;28;20104;-76
2021/12/29 11:11:34;;;;;;;12.68;2.17;;;9.10;78.10;;;;;;5035513;28;20045;-76
2021/12/29 11:14:07;;;;;;;17.17;2.35;;;9.10;78.20;;;;;;5053188;28;20025;-76
2021/12/29 11:16:33;;;;;;;13.02;2.13;;;9.10;78.10;;;;;;5053111;28;20028;-75
2021/12/29 11:18:59;;;;;;;11.57;2.50;;;9.10;78.40;;;;;;5035354;28;20543;-75
2021/12/29 11:21:30;;;;;;;15.55;2.63;;;9.10;78.20;;;;;;5053130;28;20107;-75
2021/12/29 11:24:09;;;;;;;12.93;3.10;;;9.10;78.30;;;;;;5032340;28;20025;-74
2021/12/29 11:26:35;;;;;;;15.88;2.35;;;9.00;77.80;;;;;;5053079;28;20028;-74
2021/12/29 11:29:09;;;;;;;9.70;1.92;;;9.00;78.00;;;;;;5053164;28;20458;-74
2021/12/29 11:31:39;;;;;;;10.98;2.05;;;9.00;78.20;;;;;;5068286;28;20391;-73
2021/12/29 11:34:17;;;;;;;16.83;3.42;;;9.00;78.50;;;;;;5053005;28;20080;-73
2021/12/29 11:36:45;;;;;;;10.90;2.17;;;9.10;78.50;;;;;;5036169;28;20031;-73
2021/12/29 11:39:11;;;;;;;7.68;1.75;;;9.00;78.30;;;;;;5056793;28;20029;-74
2021/12/29 11:41:37;;;;;;;12.13;2.28;;;9.00;78.60;;;;;;5053870;28;20024;-75
2021/12/29 11:44:03;;;;;;;10.80;2.15;;;9.00;78.60;;;;;;5053309;28;20052;-76
2021/12/29 11:46:29;;;;;;;9.02;2.35;;;9.00;78.10;;;;;;5053165;28;20488;-75
2021/12/29 11:48:54;;;;;;;12.35;2.53;;;9.00;78.30;;;;;;5035286;28;20029;-76
2021/12/29 11:51:36;;;;;;;11.23;1.48;;;9.00;78.10;;;;;;5052831;28;20099;-76
2021/12/29 11:54:17;;;;;;;13.50;1.95;;;9.00;77.30;;;;;;5035195;28;20388;-76
2021/12/29 11:56:42;;;;;;;9.65;2.42;;;9.00;77.30;;;;;;5068568;28;20031;-76
2021/12/29 11:59:09;;;;;;;6.60;1.50;;;9.00;77.70;;;;;;5053162;28;20029;-77
2021/12/29 12:01:36;;;;;;;5.43;1.42;;;9.00;77.50;;;;;;5053062;28;20021;-76
2021/12/29 12:04:05;;;;;;;10.90;2.08;;;9.00;77.30;;;;;;5034919;28;20091;-77
2021/12/29 12:06:40;;;;;;;8.57;1.63;;;9.00;77.30;;;;;;5034951;28;20060;-75
2021/12/29 12:09:15;;;;;;;6.97;1.40;;;9.00;77.00;;;;;;5034335;28;20074;-78
2021/12/29 12:11:44;;;;;;;;;;;9.10;77.40;;;;;;5053312;28;20180;-76
2021/12/29 12:14:47;;;;;;;6.93;1.58;;;9.00;77.10;;;;;;5034647;28;20347;-76
2021/12/29 12:17:23;;;;;;;8.73;1.30;;;9.10;76.90;;;;;;5034915;28;20430;-76
2021/12/29 12:20:24;;;;;;;5.18;1.40;;;9.10;76.40;;;;;;5068144;28;20028;-73
2021/12/29 12:22:53;;;;;;;5.93;1.33;;;9.20;76.30;;;;;;4991175;28;20037;-74
2021/12/29 12:25:25;;;;;;;5.20;1.13;;;9.20;76.40;;;;;;5023436;28;20106;-74
2021/12/29 12:27:51;;;;;;;5.43;1.55;;;9.10;77.00;;;;;;5034677;28;20032;-74
2021/12/29 12:30:17;;;;;;;6.55;1.45;;;9.10;77.80;;;;;;5052103;28;20040;-74
2021/12/29 12:33:07;;;;;;;2.75;1.00;;;9.10;78.40;;;;;;5034304;28;20056;-74
2021/12/29 12:35:40;;;;;;;2.97;1.02;;;9.10;78.40;;;;;;5052175;28;20110;-73
2021/12/29 12:38:11;;;;;;;6.03;1.00;;;9.20;78.60;;;;;;5034502;28;20383;-73
2021/12/29 12:40:37;;;;;;;5.90;0.93;;;9.20;78.60;;;;;;5034486;28;20036;-73
2021/12/29 12:43:16;;;;;;;4.35;0.85;;;9.30;78.90;;;;;;5052435;28;20021;-75
2021/12/29 12:45:47;;;;;;;3.22;1.15;;;9.20;78.70;;;;;;5034473;28;20078;-74
2021/12/29 12:48:39;;;;;;;2.15;1.00;;;9.30;78.50;;;;;;5034558;28;20295;-75
2021/12/29 12:51:17;;;;;;;4.90;1.83;;;9.20;78.80;;;;;;5031687;28;20447;-75
2021/12/29 12:53:45;;;;;;;4.28;1.75;;;9.20;79.70;;;;;;5052248;28;20104;-75
2021/12/29 12:56:20;;;;;;;6.18;1.98;;;9.20;80.00;;;;;;5034465;28;20032;-75
2021/12/29 12:58:51;;;;;;;3.92;1.63;;;9.20;80.80;;;;;;5052251;28;20025;-75
2021/12/29 13:01:25;;;;;;;4.70;1.27;;;9.20;81.10;;;;;;5034265;28;20028;-75
2021/12/29 13:04:04;;;;;;;3.08;0.90;;;9.20;81.10;;;;;;5034356;28;20491;-75
2021/12/29 13:06:34;;;;;;;1.17;0.70;;;9.20;81.30;;;;;;5052114;28;20026;-75
2021/12/29 13:09:02;;;;;;;1.63;0.65;;;9.20;81.30;;;;;;5034413;28;20056;-74
2021/12/29 13:11:32;;;;;;;2.65;0.77;;;9.20;81.40;;;;;;5067334;28;20035;-75
2021/12/29 13:14:01;;;;;;;2.55;0.43;;;9.20;81.70;;;;;;5034137;28;20025;-74
2021/12/29 13:16:28;;;;;;;0.70;0.50;;;9.20;80.80;;;;;;5052064;28;20039;-74